Time;durP1;ratioP1;P1;durP2;ratioP2;P2;SDS_P1;SDS_P2;PMS_P1;PMS_P2;Temp;Humidity;BMP_temperature;BMP_pressure;BME280_temperature;BME280_humidity;BME280_pressure;Samples;Min_cycle;Max_cycle;Signal;HPM_P1;HPM_P2
2023/09/14 00:01:09;;;;;;;8.68;5.28;;;;;;;15.73;89.03;93272.41;5067139;28;20387;-77
2023/09/14 00:03:36;;;;;;;7.53;4.75;;;;;;;15.56;88.27;93262.88;5069772;28;20076;-78
2023/09/14 00:06:03;;;;;;;7.93;4.97;;;;;;;15.57;89.25;93269.63;5067774;28;20052;-77
2023/09/14 00:08:31;;;;;;;8.40;5.22;;;;;;;15.29;91.75;93273.13;5069534;28;20158;-77
2023/09/14 00:10:59;;;;;;;7.93;4.82;;;;;;;15.22;92.19;93276.66;5068582;28;20055;-77
2023/09/14 00:13:26;;;;;;;11.70;5.00;;;;;;;15.24;92.31;93273.84;5067612;28;20468;-77
2023/09/14 00:15:53;;;;;;;6.47;4.25;;;;;;;15.24;92.01;93273.84;5067817;28;20131;-76
2023/09/14 00:18:20;;;;;;;7.30;4.35;;;;;;;15.24;92.12;93279.03;5069797;28;20083;-77
2023/09/14 00:20:48;;;;;;;7.68;4.53;;;;;;;15.05;92.24;93265.53;5074350;28;20513;-77
2023/09/14 00:23:15;;;;;;;7.85;4.50;;;;;;;15.09;92.29;93284.75;5078747;28;20046;-77
2023/09/14 00:25:43;;;;;;;7.47;4.20;;;;;;;14.98;92.57;93275.25;5076862;28;20045;-77
2023/09/14 00:28:10;;;;;;;9.75;4.53;;;;;;;15.09;91.39;93279.59;5075973;28;20497;-77
2023/09/14 00:30:36;;;;;;;6.97;4.40;;;;;;;15.01;91.74;93257.47;5074856;28;20048;-77
2023/09/14 00:33:04;;;;;;;6.35;3.85;;;;;;;15.07;91.07;93273.84;5077621;28;20049;-77
2023/09/14 00:35:30;;;;;;;7.43;4.50;;;;;;;15.14;91.00;93276.28;5076288;28;20056;-77
2023/09/14 00:37:57;;;;;;;8.75;3.83;;;;;;;15.24;89.74;93281.63;5076533;28;20048;-77
2023/09/14 00:40:25;;;;;;;5.75;3.60;;;;;;;15.26;89.84;93279.56;5075917;28;20052;-77
2023/09/14 00:42:53;;;;;;;8.35;4.20;;;;;;;15.23;89.81;93267.88;5077429;28;20068;-77
2023/09/14 00:45:21;;;;;;;7.97;4.45;;;;;;;15.16;90.95;93271.66;5077945;28;20044;-77
2023/09/14 00:47:50;;;;;;;7.18;4.50;;;;;;;14.91;90.33;93239.22;5077507;28;20091;-77
2023/09/14 00:50:18;;;;;;;6.25;3.65;;;;;;;15.19;91.41;93276.34;5067808;28;20465;-76
2023/09/14 00:52:46;;;;;;;6.10;4.22;;;;;;;15.11;90.04;93259.44;5071142;28;20494;-76
2023/09/14 00:55:17;;;;;;;7.95;3.97;;;;;;;15.16;90.73;93274.22;5073268;28;20052;-76
2023/09/14 00:57:44;;;;;;;6.80;4.22;;;;;;;15.13;91.19;93275.47;5077193;28;20052;-76
2023/09/14 01:00:14;;;;;;;6.47;3.85;;;;;;;15.10;91.22;93279.31;5074364;28;20086;-77
2023/09/14 01:02:41;;;;;;;7.53;4.55;;;;;;;14.96;90.49;93247.06;5075036;28;20102;-77
2023/09/14 01:05:09;;;;;;;6.45;4.22;;;;;;;15.12;91.49;93260.19;5078698;28;20049;-77
2023/09/14 01:07:36;;;;;;;7.07;4.28;;;;;;;15.14;90.95;93273.69;5074901;28;20521;-78
2023/09/14 01:10:04;;;;;;;6.05;4.35;;;;;;;15.14;91.49;93273.69;5080597;28;20494;-77
2023/09/14 01:12:32;;;;;;;6.95;3.72;;;;;;;15.08;90.83;93268.44;5080196;28;20183;-77
2023/09/14 01:15:05;;;;;;;6.07;4.43;;;;;;;15.02;90.60;93264.22;5080821;28;20037;-77
2023/09/14 01:17:39;;;;;;;7.10;4.32;;;;;;;15.10;91.19;93281.91;5080259;28;20040;-77
2023/09/14 01:20:24;;;;;;;6.43;4.00;;;;;;;15.02;91.96;93271.97;5076392;28;20052;-77
2023/09/14 01:23:00;;;;;;;6.32;4.68;;;;;;;15.03;92.14;93283.09;5079191;28;20097;-76
2023/09/14 01:26:23;;;;;;;10.15;4.80;;;;;;;14.99;92.31;93280.19;5080518;28;20109;-77
2023/09/14 01:28:51;;;;;;;5.72;4.15;;;;;;;14.98;91.58;93280.41;5079029;28;20028;-77
2023/09/14 01:31:17;;;;;;;8.60;4.65;;;;;;;15.02;92.19;93282.31;5080057;28;20048;-77
2023/09/14 01:33:48;;;;;;;8.98;4.40;;;;;;;15.01;93.08;93275.59;5081337;28;20049;-77
2023/09/14 01:36:18;;;;;;;6.03;4.65;;;;;;;14.99;92.17;93282.78;5078164;28;20036;-77
2023/09/14 01:38:46;;;;;;;6.18;4.38;;;;;;;14.90;93.44;93279.03;5080077;28;20044;-77
2023/09/14 01:41:14;;;;;;;7.68;3.70;;;;;;;14.93;93.07;93289.69;5068863;28;20052;-77
2023/09/14 01:43:44;;;;;;;8.50;4.97;;;;;;;14.91;93.61;93281.34;5073752;28;20041;-77
2023/09/14 01:46:13;;;;;;;7.32;4.70;;;;;;;14.67;94.58;93253.03;5081810;28;20467;-77
2023/09/14 01:48:40;;;;;;;10.65;4.78;;;;;;;14.88;94.05;93271.50;5080233;28;20090;-76
2023/09/14 01:51:07;;;;;;;9.45;5.07;;;;;;;14.92;93.90;93275.19;5081601;28;20122;-77
2023/09/14 01:53:33;;;;;;;7.88;4.63;;;;;;;14.96;92.58;93276.28;5075857;28;20889;-77
2023/09/14 01:56:00;;;;;;;7.15;4.53;;;;;;;14.67;93.46;93232.34;5081595;28;20101;-77
2023/09/14 01:58:27;;;;;;;6.18;4.72;;;;;;;14.96;93.07;93273.69;5080067;28;20044;-77
2023/09/14 02:00:54;;;;;;;9.85;5.10;;;;;;;14.94;93.28;93275.72;5077100;28;20048;-78
2023/09/14 02:03:22;;;;;;;9.50;4.80;;;;;;;14.93;93.71;93286.31;5078266;28;20497;-77
2023/09/14 02:05:56;;;;;;;6.68;4.45;;;;;;;14.85;95.18;93281.53;5078197;28;20441;-77
2023/09/14 02:08:23;;;;;;;7.40;4.72;;;;;;;14.76;96.02;93279.31;5069678;28;20049;-77
2023/09/14 02:10:50;;;;;;;9.07;4.97;;;;;;;14.71;95.40;93274.03;5079890;28;20044;-76
2023/09/14 02:13:16;;;;;;;7.88;5.00;;;;;;;14.73;94.40;93279.78;5081200;28;20044;-77
2023/09/14 02:15:43;;;;;;;10.60;4.70;;;;;;;14.70;94.61;93268.09;5080175;28;20047;-78
2023/09/14 02:18:10;;;;;;;8.93;5.63;;;;;;;14.82;95.24;93287.94;5076475;28;20559;-77
2023/09/14 02:20:38;;;;;;;6.50;4.60;;;;;;;14.84;94.54;93285.91;5078876;28;20126;-76
2023/09/14 02:23:05;;;;;;;9.23;4.55;;;;;;;14.83;94.74;93286.94;5080802;28;20048;-77
2023/09/14 02:25:32;;;;;;;14.13;5.35;;;;;;;14.63;97.11;93269.25;5078224;28;20093;-76
2023/09/14 02:27:58;;;;;;;11.27;5.72;;;;;;;14.65;98.71;93283.50;5077567;28;20048;-76
2023/09/14 02:30:26;;;;;;;11.15;5.63;;;;;;;14.64;98.70;93281.97;5077160;28;20093;-76
2023/09/14 02:32:52;;;;;;;12.85;6.18;;;;;;;14.62;99.68;93286.56;5078539;28;20044;-77
2023/09/14 02:35:19;;;;;;;14.50;6.78;;;;;;;14.61;99.13;93289.38;5077387;28;20044;-77
2023/09/14 02:37:47;;;;;;;12.18;6.47;;;;;;;14.42;97.96;93254.19;5078037;28;20048;-78
2023/09/14 02:40:14;;;;;;;17.10;6.93;;;;;;;14.59;97.97;93273.31;5077430;28;20044;-78
2023/09/14 02:42:41;;;;;;;9.70;5.78;;;;;;;14.68;97.89;93277.09;5079157;28;20036;-79
2023/09/14 02:45:08;;;;;;;15.18;6.45;;;;;;;14.75;97.70;93288.09;5080238;28;20048;-79
2023/09/14 02:47:34;;;;;;;10.50;5.68;;;;;;;14.72;96.80;93273.00;5077818;28;20498;-79
2023/09/14 02:50:01;;;;;;;9.13;5.32;;;;;;;14.76;97.01;93270.78;5075724;28;20044;-79
2023/09/14 02:52:28;;;;;;;8.75;5.07;;;;;;;14.90;95.65;93284.19;5078152;28;20048;-78
2023/09/14 02:54:56;;;;;;;10.93;5.90;;;;;;;14.80;96.83;93267.50;5077078;28;20460;-79
2023/09/14 02:57:23;;;;;;;10.57;5.60;;;;;;;14.92;95.41;93282.16;5077355;28;20040;-79
2023/09/14 02:59:53;;;;;;;9.85;6.13;;;;;;;14.82;95.63;93265.44;5076631;28;20060;-79
2023/09/14 03:02:20;;;;;;;9.00;5.10;;;;;;;14.92;96.14;93282.16;5075733;28;20193;-79
2023/09/14 03:04:46;;;;;;;12.52;5.53;;;;;;;14.87;95.93;93282.88;5079116;28;20080;-78
2023/09/14 03:07:14;;;;;;;11.93;5.85;;;;;;;14.70;96.57;93268.09;5067224;28;20044;-78
2023/09/14 03:09:41;;;;;;;11.52;6.07;;;;;;;14.57;96.29;93250.28;5073752;28;20094;-78
2023/09/14 03:12:09;;;;;;;12.25;5.97;;;;;;;14.84;96.11;93283.31;5079752;28;20045;-77
2023/09/14 03:14:36;;;;;;;15.57;5.78;;;;;;;14.88;95.87;93281.03;5075552;28;20596;-78
2023/09/14 03:17:02;;;;;;;12.50;6.15;;;;;;;14.83;95.67;93284.34;5079970;28;20097;-78
2023/09/14 03:19:29;;;;;;;10.43;5.35;;;;;;;14.70;95.71;93260.34;5078188;28;20056;-79
2023/09/14 03:21:56;;;;;;;14.60;7.15;;;;;;;14.82;96.02;93280.19;5076518;28;20048;-78
2023/09/14 03:24:23;;;;;;;15.57;6.93;;;;;;;14.77;96.56;93288.63;5078823;28;20633;-79
2023/09/14 03:26:49;;;;;;;14.15;6.53;;;;;;;14.65;96.90;93272.38;5079173;28;20040;-79
2023/09/14 03:29:18;;;;;;;12.15;6.22;;;;;;;14.65;97.41;93262.03;5077187;28;20040;-78
2023/09/14 03:31:44;;;;;;;12.93;6.18;;;;;;;14.75;96.75;93282.94;5069951;28;20048;-79
2023/09/14 03:34:11;;;;;;;12.27;6.25;;;;;;;14.66;96.82;93254.06;5076691;28;20104;-78
2023/09/14 03:36:38;;;;;;;15.80;6.70;;;;;;;14.69;97.08;93261.31;5077799;28;20109;-78
2023/09/14 03:39:05;;;;;;;11.55;5.88;;;;;;;14.78;96.62;93269.53;5079447;28;20089;-78
2023/09/14 03:41:31;;;;;;;11.73;5.63;;;;;;;14.78;97.41;93272.13;5077551;28;20047;-78
2023/09/14 03:43:58;;;;;;;11.43;5.50;;;;;;;14.78;96.89;93269.53;5074009;28;20085;-79
2023/09/14 03:46:26;;;;;;;12.70;6.05;;;;;;;14.75;97.14;93267.41;5078604;28;20043;-79
2023/09/14 03:48:53;;;;;;;13.20;6.38;;;;;;;14.72;97.42;93262.66;5074649;28;20437;-79
2023/09/14 03:51:20;;;;;;;14.05;6.22;;;;;;;14.75;97.21;93270.00;5078964;28;20109;-79
2023/09/14 03:53:46;;;;;;;13.45;6.07;;;;;;;14.61;98.55;93255.75;5072922;28;20044;-78
2023/09/14 03:56:13;;;;;;;18.15;7.72;;;;;;;14.60;100.00;93278.25;5072454;28;20044;-78
2023/09/14 03:58:42;;;;;;;14.20;6.63;;;;;;;14.57;98.82;93274.34;5073679;28;20049;-79
2023/09/14 04:01:09;;;;;;;15.65;6.55;;;;;;;14.59;98.44;93278.47;5076518;28;21115;-78
2023/09/14 04:03:37;;;;;;;14.15;6.95;;;;;;;14.62;98.73;93275.44;5072740;28;20049;-78
2023/09/14 04:06:03;;;;;;;19.25;7.55;;;;;;;14.59;99.64;93276.69;5079121;28;20090;-78
2023/09/14 04:08:30;;;;;;;17.90;6.65;;;;;;;14.64;98.45;93278.56;5074718;28;20500;-78
2023/09/14 04:10:57;;;;;;;16.63;6.90;;;;;;;14.51;98.10;93262.34;5076356;28;20093;-78
2023/09/14 04:13:30;;;;;;;18.70;7.65;;;;;;;14.64;99.47;93278.56;5076670;28;20089;-79
2023/09/14 04:15:58;;;;;;;14.43;6.70;;;;;;;14.67;98.93;93280.69;5076765;28;20094;-79
2023/09/14 04:18:25;;;;;;;14.23;6.80;;;;;;;14.48;97.90;93244.72;5077432;28;20055;-78
2023/09/14 04:20:54;;;;;;;16.88;7.15;;;;;;;14.44;98.34;93243.59;5068503;28;20105;-79
2023/09/14 04:23:21;;;;;;;24.98;7.75;;;;;;;14.76;97.63;93289.66;5076381;28;20048;-79
2023/09/14 04:25:48;;;;;;;20.85;7.82;;;;;;;14.45;98.41;93244.38;5077719;28;20048;-80
2023/09/14 04:28:16;;;;;;;17.27;8.15;;;;;;;14.69;98.05;93284.59;5078398;28;20051;-80
2023/09/14 04:30:44;;;;;;;22.35;9.40;;;;;;;14.77;97.61;93291.22;5072150;28;20092;-79
2023/09/14 04:33:11;;;;;;;18.27;8.77;;;;;;;14.69;98.34;93284.59;5075968;28;20079;-78
2023/09/14 04:35:38;;;;;;;22.70;8.27;;;;;;;14.79;98.23;93285.81;5075937;28;20075;-77
2023/09/14 04:38:06;;;;;;;27.75;9.63;;;;;;;14.75;98.14;93288.09;5076602;28;20482;-77
2023/09/14 04:40:36;;;;;;;23.00;8.57;;;;;;;14.73;98.72;93284.16;5073684;28;20163;-78
2023/09/14 04:43:03;;;;;;;17.17;7.80;;;;;;;14.82;98.69;93306.06;5082117;28;21022;-78
2023/09/14 04:45:30;;;;;;;21.13;7.57;;;;;;;14.74;98.61;93288.28;5078686;28;20053;-78
2023/09/14 04:47:57;;;;;;;20.58;7.35;;;;;;;14.87;98.39;93303.56;5079925;28;20044;-78
2023/09/14 04:50:24;;;;;;;20.25;8.60;;;;;;;14.90;98.16;93312.66;5073980;28;20080;-77
2023/09/14 04:52:51;;;;;;;20.63;8.15;;;;;;;14.90;98.02;93307.47;5074976;28;20099;-77
2023/09/14 04:55:19;;;;;;;19.65;7.95;;;;;;;14.92;97.53;93311.41;5072798;28;20044;-77
2023/09/14 04:58:06;;;;;;;15.43;7.40;;;;;;;15.03;98.20;93314.91;5077818;28;20044;-78
2023/09/14 05:00:33;;;;;;;17.95;8.10;;;;;;;15.07;97.76;93315.22;5079844;28;20048;-77
2023/09/14 05:03:02;;;;;;;15.07;6.50;;;;;;;15.13;97.13;93311.72;5081637;28;20036;-77
2023/09/14 05:05:28;;;;;;;15.95;7.43;;;;;;;15.21;97.56;93311.34;5079216;28;20045;-76
2023/09/14 05:07:55;;;;;;;14.27;7.43;;;;;;;15.18;96.57;93296.25;5081328;28;20056;-77
2023/09/14 05:10:23;;;;;;;13.30;6.68;;;;;;;15.34;98.05;93323.16;5081409;28;20078;-76
2023/09/14 05:12:50;;;;;;;13.18;7.20;;;;;;;15.39;97.66;93332.00;5078619;28;20040;-77
2023/09/14 05:15:17;;;;;;;14.90;7.03;;;;;;;15.38;96.38;93327.84;5082066;28;20067;-77
2023/09/14 05:17:44;;;;;;;13.57;6.97;;;;;;;15.35;95.56;93305.81;5078508;28;20040;-77
2023/09/14 05:20:14;;;;;;;17.13;8.02;;;;;;;15.57;96.34;93315.44;5069936;28;20044;-79
2023/09/14 05:22:41;;;;;;;12.32;6.22;;;;;;;15.79;94.88;93318.09;5082889;28;20139;-78
2023/09/14 05:25:09;;;;;;;17.45;7.60;;;;;;;15.80;95.13;93319.66;5084962;28;20105;-78
2023/09/14 05:27:38;;;;;;;16.15;7.63;;;;;;;15.95;93.01;93318.28;5072374;28;20087;-78
2023/09/14 05:30:06;;;;;;;13.23;6.68;;;;;;;16.06;93.98;93316.63;5070240;28;20133;-78
2023/09/14 05:32:32;;;;;;;13.48;7.32;;;;;;;16.09;91.91;93303.19;5070154;28;20098;-78
2023/09/14 05:34:59;;;;;;;16.17;8.30;;;;;;;16.33;92.11;93321.09;5072244;28;20045;-78
2023/09/14 05:37:26;;;;;;;14.38;7.32;;;;;;;16.42;90.92;93314.44;5070140;28;20048;-77
2023/09/14 05:39:53;;;;;;;14.65;7.50;;;;;;;16.46;90.67;93312.13;5069560;28;20881;-76
2023/09/14 05:42:21;;;;;;;20.13;7.40;;;;;;;16.56;90.77;93310.44;5069793;28;20049;-77
2023/09/14 05:44:50;;;;;;;19.80;7.50;;;;;;;16.76;89.92;93326.44;5070698;28;20048;-77
2023/09/14 05:47:16;;;;;;;17.98;8.88;;;;;;;16.84;89.10;93318.22;5069652;28;20448;-77
2023/09/14 05:49:43;;;;;;;17.45;7.75;;;;;;;16.97;88.69;93319.63;5078693;28;20048;-77
2023/09/14 05:52:10;;;;;;;20.60;8.38;;;;;;;17.06;88.23;93318.19;5072208;28;20086;-76
2023/09/14 05:54:37;;;;;;;20.27;7.68;;;;;;;17.19;87.83;93314.41;5068884;28;20507;-76
2023/09/14 05:57:04;;;;;;;24.45;8.25;;;;;;;17.18;86.88;93299.06;5069987;28;20082;-76
2023/09/14 05:59:31;;;;;;;23.60;9.90;;;;;;;17.45;87.70;93313.78;5073602;28;20040;-76
2023/09/14 06:01:59;;;;;;;42.03;17.80;;;;;;;17.56;86.02;93310.22;5072619;28;20547;-76
2023/09/14 06:04:26;;;;;;;22.70;10.45;;;;;;;17.69;86.73;93308.22;5070112;28;20045;-77
2023/09/14 06:06:52;;;;;;;26.17;13.30;;;;;;;17.55;86.40;93276.72;5069715;28;20445;-77
2023/09/14 06:09:19;;;;;;;31.55;10.82;;;;;;;17.93;87.48;93313.81;5076786;28;20052;-77
2023/09/14 06:11:46;;;;;;;29.20;10.05;;;;;;;18.09;86.63;93314.66;5083986;28;20077;-76
2023/09/14 06:14:12;;;;;;;37.35;12.52;;;;;;;17.95;86.37;93280.53;5072284;28;20093;-76
2023/09/14 06:16:39;;;;;;;53.60;14.05;;;;;;;18.20;85.30;93301.72;5076225;28;20045;-77
2023/09/14 06:19:07;;;;;;;41.10;14.57;;;;;;;18.14;84.92;93295.69;5069601;28;20056;-77
2023/09/14 06:21:34;;;;;;;41.53;14.13;;;;;;;18.32;85.20;93311.91;5071584;28;20873;-77
2023/09/14 06:24:01;;;;;;;38.85;13.35;;;;;;;18.18;84.14;93312.38;5088298;28;20123;-77
2023/09/14 06:26:27;;;;;;;43.08;12.45;;;;;;;18.29;83.59;93313.97;5077296;28;20086;-78
2023/09/14 06:28:55;;;;;;;36.83;11.70;;;;;;;18.50;82.92;93314.03;5068865;28;20468;-77
2023/09/14 06:31:22;;;;;;;63.92;14.40;;;;;;;18.45;82.72;93308.03;5069531;28;20409;-77
2023/09/14 06:33:49;;;;;;;43.97;12.82;;;;;;;18.48;82.65;93316.13;5069262;28;20098;-77
2023/09/14 06:36:18;;;;;;;48.90;12.40;;;;;;;18.48;82.44;93323.91;5070617;28;20076;-77
2023/09/14 06:38:45;;;;;;;42.13;11.43;;;;;;;18.68;81.30;93327.59;5070536;28;20063;-77
2023/09/14 06:41:12;;;;;;;45.05;11.85;;;;;;;18.77;79.89;93325.28;5077213;28;20113;-76
2023/09/14 06:43:40;;;;;;;37.58;10.43;;;;;;;18.95;79.83;93309.19;5079348;28;20044;-77
2023/09/14 06:46:07;;;;;;;59.80;12.93;;;;;;;19.18;78.47;93311.53;5079135;28;20048;-77
2023/09/14 06:48:34;;;;;;;46.38;13.18;;;;;;;19.56;76.57;93329.47;5073445;28;20129;-77
2023/09/14 06:51:01;;;;;;;48.08;12.30;;;;;;;19.79;75.57;93330.75;5081346;28;20085;-77
2023/09/14 06:53:29;;;;;;;41.55;12.30;;;;;;;19.95;74.32;93328.13;5075607;28;21227;-76
2023/09/14 06:55:55;;;;;;;46.97;11.15;;;;;;;20.11;73.68;93326.25;5069469;28;20048;-77
2023/09/14 06:58:22;;;;;;;49.63;11.77;;;;;;;20.29;73.15;93332.72;5072715;28;20494;-77
2023/09/14 07:00:49;;;;;;;30.52;9.68;;;;;;;20.38;71.38;93331.13;5076948;28;20475;-76
2023/09/14 07:03:15;;;;;;;39.70;12.15;;;;;;;20.47;72.09;93335.78;5087373;28;20044;-76
2023/09/14 07:05:42;;;;;;;46.38;11.02;;;;;;;20.66;71.29;93336.72;5069194;28;20040;-77
2023/09/14 07:08:09;;;;;;;31.77;9.55;;;;;;;20.87;71.38;93338.47;5074323;28;20505;-77
2023/09/14 07:10:37;;;;;;;33.30;10.55;;;;;;;20.83;71.52;93327.75;5067859;28;20113;-77
2023/09/14 07:13:04;;;;;;;33.45;9.50;;;;;;;21.12;70.45;93332.28;5072578;28;20093;-78
2023/09/14 07:15:31;;;;;;;37.40;8.55;;;;;;;21.44;69.98;93335.44;5068311;28;20565;-78
2023/09/14 07:17:58;;;;;;;28.60;8.43;;;;;;;21.57;68.46;93331.41;5070252;28;20098;-77
2023/09/14 07:20:24;;;;;;;29.10;8.40;;;;;;;21.80;68.05;93336.97;5070582;28;20056;-77
2023/09/14 07:22:51;;;;;;;35.85;8.93;;;;;;;22.02;68.21;93342.50;5074088;28;20094;-77
2023/09/14 07:25:18;;;;;;;26.42;7.72;;;;;;;21.99;67.63;93344.91;5067641;28;20136;-78
2023/09/14 07:27:46;;;;;;;28.55;7.93;;;;;;;22.04;67.04;93344.84;5069906;28;20045;-77
2023/09/14 07:30:14;;;;;;;34.13;9.35;;;;;;;22.05;66.46;93341.16;5071654;28;20159;-77
2023/09/14 07:32:41;;;;;;;28.58;7.60;;;;;;;21.98;67.07;93351.19;5071714;28;20057;-78
2023/09/14 07:35:09;;;;;;;26.92;7.38;;;;;;;22.03;66.82;93349.28;5068387;28;20055;-77
2023/09/14 07:37:36;;;;;;;28.45;7.88;;;;;;;21.96;67.14;93330.53;5067465;28;20570;-77
2023/09/14 07:40:03;;;;;;;24.02;7.88;;;;;;;22.22;66.44;93304.06;5067880;28;20205;-78
2023/09/14 07:42:30;;;;;;;27.90;6.30;;;;;;;22.66;65.02;93338.09;5067828;28;20127;-79
2023/09/14 07:44:58;;;;;;;29.65;6.82;;;;;;;22.94;64.38;93335.63;5069935;28;20049;-79
2023/09/14 07:47:28;;;;;;;30.33;7.45;;;;;;;23.25;63.22;93345.66;5067954;28;20091;-79
2023/09/14 07:49:54;;;;;;;27.63;9.23;;;;;;;23.49;62.52;93350.03;5069814;28;20056;-79
2023/09/14 07:52:23;;;;;;;33.95;9.25;;;;;;;23.76;60.92;93357.19;5066877;28;20090;-80
2023/09/14 07:54:49;;;;;;;37.67;7.88;;;;;;;23.74;60.00;93334.94;5067873;28;20131;-80
2023/09/14 07:57:16;;;;;;;25.35;5.47;;;;;;;24.01;59.08;93347.31;5071489;28;20049;-79
2023/09/14 07:59:43;;;;;;;29.27;8.05;;;;;;;24.16;59.98;93340.22;5085975;28;20047;-78
2023/09/14 08:02:11;;;;;;;21.90;6.53;;;;;;;24.36;57.38;93333.03;5086157;28;20519;-79
2023/09/14 08:04:38;;;;;;;20.23;5.50;;;;;;;24.66;57.28;93342.16;5067869;28;20049;-79
2023/09/14 08:07:05;;;;;;;26.45;6.88;;;;;;;24.99;56.49;93337.81;5067412;28;20518;-79
2023/09/14 08:09:31;;;;;;;17.58;5.82;;;;;;;25.22;55.23;93336.75;5067772;28;20467;-79
2023/09/14 08:11:58;;;;;;;24.15;7.38;;;;;;;25.33;54.39;93336.50;5067456;28;20048;-78
2023/09/14 08:14:25;;;;;;;18.08;6.40;;;;;;;25.24;54.77;93328.56;5067148;28;20105;-78
2023/09/14 08:16:52;;;;;;;22.90;6.55;;;;;;;25.31;53.63;93309.72;5067310;28;20053;-78
2023/09/14 08:19:20;;;;;;;13.70;4.80;;;;;;;25.59;54.58;93343.81;5069104;28;20060;-78
2023/09/14 08:21:47;;;;;;;19.73;5.85;;;;;;;25.69;53.69;93340.91;5067420;28;20052;-78
2023/09/14 08:24:13;;;;;;;20.77;4.63;;;;;;;25.84;52.58;93347.66;5083803;28;20549;-78
2023/09/14 08:26:40;;;;;;;14.68;4.97;;;;;;;26.09;51.84;93340.16;5068957;28;20048;-79
2023/09/14 08:29:07;;;;;;;15.32;4.22;;;;;;;25.60;51.22;93343.50;5069478;28;20044;-79
2023/09/14 08:31:33;;;;;;;16.25;4.82;;;;;;;25.79;51.78;93347.00;5066791;28;20129;-79
2023/09/14 08:34:00;;;;;;;12.10;3.97;;;;;;;25.96;51.76;93351.59;5067139;28;20509;-80
2023/09/14 08:36:29;;;;;;;12.27;3.97;;;;;;;26.01;49.98;93340.91;5069451;28;20098;-80
2023/09/14 08:38:56;;;;;;;13.20;4.28;;;;;;;26.47;48.96;93336.25;5066807;28;20131;-80
2023/09/14 08:41:30;;;;;;;11.77;4.05;;;;;;;26.58;47.48;93326.22;5067892;28;20250;-80
2023/09/14 08:43:58;;;;;;;11.77;4.22;;;;;;;27.11;47.25;93336.81;5067167;28;20447;-80
2023/09/14 08:46:25;;;;;;;13.23;4.28;;;;;;;27.38;46.81;93334.16;5071119;28;20497;-79
2023/09/14 08:48:53;;;;;;;17.48;4.95;;;;;;;27.57;45.30;93315.34;5070995;28;20394;-79
2023/09/14 08:51:21;;;;;;;14.02;4.57;;;;;;;27.95;44.97;93327.06;5069215;28;20048;-80
2023/09/14 08:53:50;;;;;;;13.57;4.55;;;;;;;27.75;44.54;93326.66;5070342;28;20075;-80
2023/09/14 08:56:17;;;;;;;11.88;4.20;;;;;;;27.73;43.42;93315.66;5066747;28;20040;-80
2023/09/14 08:58:45;;;;;;;8.13;3.58;;;;;;;27.69;43.55;93318.16;5081550;28;20037;-80
2023/09/14 09:01:14;;;;;;;8.82;4.03;;;;;;;28.08;42.26;93309.44;5075035;28;20040;-79
2023/09/14 09:03:41;;;;;;;13.15;3.78;;;;;;;28.09;42.18;93306.47;5085425;28;20090;-79
2023/09/14 09:06:08;;;;;;;7.35;3.33;;;;;;;27.49;40.11;93293.16;5085605;28;20055;-79
2023/09/14 09:08:35;;;;;;;6.85;2.88;;;;;;;27.40;41.11;93305.63;5076079;28;20102;-80
2023/09/14 09:11:04;;;;;;;7.45;3.00;;;;;;;27.15;40.47;93285.03;5067210;28;20040;-80
2023/09/14 09:13:34;;;;;;;9.30;3.53;;;;;;;27.37;41.37;93274.56;5068853;28;20048;-80
2023/09/14 09:16:01;;;;;;;5.53;2.67;;;;;;;27.78;40.19;93298.84;5067066;28;20456;-80
2023/09/14 09:18:28;;;;;;;8.77;3.30;;;;;;;27.35;41.18;93280.94;5071691;28;20455;-78
2023/09/14 09:20:56;;;;;;;5.90;3.35;;;;;;;27.80;40.93;93294.03;5066751;28;20052;-79
2023/09/14 09:23:23;;;;;;;11.65;3.38;;;;;;;27.71;41.00;93280.88;5068389;28;20049;-79
2023/09/14 09:25:54;;;;;;;11.57;4.38;;;;;;;28.00;41.77;93287.28;5067084;28;20053;-80
2023/09/14 09:28:30;;;;;;;11.05;3.95;;;;;;;28.31;40.58;93288.09;5072294;28;20445;-78
2023/09/14 09:30:57;;;;;;;10.38;3.50;;;;;;;28.50;39.66;93285.00;5070170;28;20084;-79
2023/09/14 09:33:36;;;;;;;7.45;3.33;;;;;;;28.01;40.42;93267.72;5070976;28;20056;-77
2023/09/14 09:36:15;;;;;;;12.32;4.55;;;;;;;28.37;40.41;93295.47;5082621;28;20052;-79
2023/09/14 09:38:41;;;;;;;11.95;3.70;;;;;;;28.30;39.77;93297.09;5088807;28;20052;-78
2023/09/14 09:41:11;;;;;;;12.43;4.85;;;;;;;28.53;41.42;93271.16;5088694;28;20052;-78
2023/09/14 09:43:40;;;;;;;12.30;3.90;;;;;;;28.88;39.76;93283.38;5075642;28;20147;-80
2023/09/14 09:46:15;;;;;;;9.20;3.70;;;;;;;29.19;40.47;93290.06;5069887;28;20045;-79
2023/09/14 09:48:42;;;;;;;5.75;3.08;;;;;;;29.14;39.62;93291.06;5074556;28;20121;-79
2023/09/14 09:51:09;;;;;;;8.02;3.47;;;;;;;29.23;39.13;93296.28;5070081;28;20093;-79
2023/09/14 09:53:36;;;;;;;7.63;2.97;;;;;;;29.28;39.71;93288.13;5069943;28;20106;-80
2023/09/14 09:56:03;;;;;;;9.85;3.25;;;;;;;29.16;39.76;93280.16;5073923;28;20080;-80
2023/09/14 09:58:36;;;;;;;6.15;3.60;;;;;;;29.46;39.63;93280.00;5069573;28;20048;-80
2023/09/14 10:01:04;;;;;;;6.78;3.17;;;;;;;29.44;39.04;93276.94;5071687;28;20094;-80
2023/09/14 10:03:31;;;;;;;6.00;3.03;;;;;;;29.52;39.39;93281.38;5069533;28;20044;-79
2023/09/14 10:05:58;;;;;;;10.32;3.53;;;;;;;29.07;39.00;93281.00;5068851;28;20053;-80
2023/09/14 10:08:24;;;;;;;7.95;3.28;;;;;;;29.07;38.09;93275.72;5069643;28;20524;-79
2023/09/14 10:10:52;;;;;;;8.25;3.25;;;;;;;29.32;38.57;93272.38;5088050;28;20041;-80
2023/09/14 10:13:21;;;;;;;7.22;2.80;;;;;;;29.68;38.44;93272.81;5084150;28;20121;-79
2023/09/14 10:15:50;;;;;;;10.43;3.28;;;;;;;29.19;37.85;93274.22;5069604;28;20140;-80
2023/09/14 10:18:21;;;;;;;6.97;2.80;;;;;;;29.25;38.36;93269.50;5071375;28;20048;-78
2023/09/14 10:20:50;;;;;;;6.45;3.10;;;;;;;29.37;37.72;93277.47;5076866;28;20142;-77
2023/09/14 10:23:18;;;;;;;7.45;2.92;;;;;;;29.04;37.54;93254.44;5072211;28;20084;-78
2023/09/14 10:25:49;;;;;;;8.25;2.88;;;;;;;29.33;37.84;93261.47;5069337;28;20044;-78
2023/09/14 10:28:16;;;;;;;8.10;3.30;;;;;;;29.07;37.86;93245.88;5072182;28;20051;-77
2023/09/14 10:30:45;;;;;;;5.57;2.75;;;;;;;29.08;37.45;93227.00;5068586;28;20055;-78
2023/09/14 10:33:14;;;;;;;6.35;3.10;;;;;;;28.26;37.93;93250.19;5067830;28;20045;-77
2023/09/14 10:35:43;;;;;;;7.10;3.45;;;;;;;28.66;38.43;93248.97;5067906;28;20089;-77
2023/09/14 10:38:10;;;;;;;6.43;3.17;;;;;;;28.89;37.80;93239.97;5069139;28;20692;-78
2023/09/14 10:40:38;;;;;;;5.85;2.97;;;;;;;29.40;37.75;93246.94;5069343;28;20127;-78
2023/09/14 10:43:06;;;;;;;8.32;2.95;;;;;;;29.69;37.09;93232.78;5068792;28;20141;-78
2023/09/14 10:45:37;;;;;;;5.85;2.92;;;;;;;29.07;36.54;93249.28;5071446;28;20501;-78
2023/09/14 10:48:06;;;;;;;6.05;2.78;;;;;;;29.21;36.32;93237.63;5069632;28;20044;-77
2023/09/14 10:50:33;;;;;;;4.78;2.70;;;;;;;29.49;36.20;93238.94;5069045;28;20097;-78
2023/09/14 10:53:02;;;;;;;4.72;2.90;;;;;;;29.73;35.29;93238.19;5073190;28;20044;-77
2023/09/14 10:55:31;;;;;;;5.07;2.88;;;;;;;30.07;36.29;93238.03;5068721;28;20049;-78
2023/09/14 10:57:58;;;;;;;6.20;3.30;;;;;;;30.29;36.40;93238.72;5069072;28;20044;-78
2023/09/14 11:00:36;;;;;;;7.20;2.65;;;;;;;30.57;35.94;93237.97;5069728;28;20048;-78
2023/09/14 11:03:03;;;;;;;7.22;2.83;;;;;;;30.95;35.41;93230.72;5068100;28;20084;-78
2023/09/14 11:05:41;;;;;;;6.63;2.40;;;;;;;31.35;35.94;93219.25;5068763;28;20049;-79
2023/09/14 11:08:10;;;;;;;4.35;2.45;;;;;;;31.78;34.03;93221.34;5068643;28;20041;-78
2023/09/14 11:10:38;;;;;;;8.50;2.97;;;;;;;32.01;34.45;93204.84;5071446;28;20090;-80
2023/09/14 11:13:28;;;;;;;8.52;3.10;;;;;;;32.45;32.71;93217.16;5068294;28;20045;-78
2023/09/14 11:15:57;;;;;;;10.02;3.17;;;;;;;32.55;31.40;93210.50;5084546;28;20052;-78
2023/09/14 11:18:50;;;;;;;8.85;3.20;;;;;;;32.70;33.28;93208.91;5073859;28;20106;-78
2023/09/14 11:21:42;;;;;;;4.88;2.38;;;;;;;32.90;31.80;93209.69;5068208;28;20048;-79
2023/09/14 11:24:10;;;;;;;7.00;2.83;;;;;;;32.90;30.73;93199.78;5086274;28;20440;-79
2023/09/14 11:26:44;;;;;;;6.45;2.80;;;;;;;33.23;31.98;93203.03;5082077;28;20412;-79
2023/09/14 11:29:11;;;;;;;4.90;3.00;;;;;;;33.41;31.99;93203.34;5068422;28;20056;-79
2023/09/14 11:31:39;;;;;;;5.32;2.60;;;;;;;33.54;29.49;93208.50;5067760;28;20175;-79